createdAt,value
2018-05-23T00:02:23.472Z,15.50
2018-05-23T00:04:49.550Z,15.50
2018-05-23T00:07:15.624Z,15.50
2018-05-23T00:09:41.641Z,15.50
2018-05-23T00:12:07.741Z,15.50
2018-05-23T00:14:34.527Z,15.50
2018-05-23T00:17:00.586Z,15.50
2018-05-23T00:19:26.647Z,15.40
2018-05-23T00:21:52.675Z,15.40
2018-05-23T00:24:18.704Z,15.40
2018-05-23T00:26:44.793Z,15.30
2018-05-23T00:29:10.873Z,15.40
2018-05-23T00:31:36.948Z,15.40
2018-05-23T00:34:03.716Z,15.30
2018-05-23T00:36:30.512Z,15.30
2018-05-23T00:38:56.561Z,15.20
2018-05-23T00:41:22.605Z,15.30
2018-05-23T00:43:48.645Z,15.30
2018-05-23T00:46:14.714Z,15.20
2018-05-23T00:48:41.618Z,15.20
2018-05-23T00:51:07.640Z,15.20
2018-05-23T00:53:33.663Z,15.30
2018-05-23T00:55:59.708Z,15.30
2018-05-23T00:58:25.794Z,15.20
2018-05-23T01:00:51.857Z,15.20
2018-05-23T01:03:18.701Z,15.20
2018-05-23T01:05:44.720Z,15.20
2018-05-23T01:08:10.830Z,15.20
2018-05-23T01:10:36.871Z,15.20
2018-05-23T01:13:02.894Z,15.20
2018-05-23T01:15:29.041Z,15.20
2018-05-23T01:17:55.097Z,15.20
2018-05-23T01:20:21.168Z,15.20
2018-05-23T01:22:47.975Z,15.20
2018-05-23T01:25:14.753Z,15.10
2018-05-23T01:27:40.843Z,15.10
2018-05-23T01:30:06.880Z,15.00
2018-05-23T01:32:32.899Z,15.00
2018-05-23T01:34:58.925Z,14.90
2018-05-23T01:37:25.778Z,14.70
2018-05-23T01:39:51.804Z,14.70
2018-05-23T01:42:17.836Z,14.70
2018-05-23T01:44:44.857Z,14.60
2018-05-23T01:47:10.913Z,14.60
2018-05-23T01:49:37.693Z,14.50
2018-05-23T01:52:03.757Z,14.50
2018-05-23T01:54:30.496Z,14.40
2018-05-23T01:56:57.252Z,14.40
2018-05-23T01:59:24.036Z,14.40
2018-05-23T02:01:50.081Z,14.30
2018-05-23T02:04:16.229Z,14.30
2018-05-23T02:06:42.261Z,14.30
2018-05-23T02:09:08.374Z,14.30
2018-05-23T02:11:34.453Z,14.20
2018-05-23T02:14:00.523Z,14.20
2018-05-23T02:16:27.317Z,14.10
2018-05-23T02:18:53.386Z,14.10
2018-05-23T02:21:19.410Z,14.00
2018-05-23T02:23:45.541Z,14.00
2018-05-23T02:26:11.561Z,14.00
2018-05-23T02:28:37.690Z,14.00
2018-05-23T02:31:03.773Z,13.90
2018-05-23T02:33:29.829Z,13.90
2018-05-23T02:35:55.861Z,13.90
2018-05-23T02:38:21.888Z,13.80
2018-05-23T02:40:47.920Z,13.80
2018-05-23T02:43:13.944Z,13.80
2018-05-23T02:45:40.063Z,13.80
2018-05-23T02:48:06.177Z,13.80
2018-05-23T02:50:32.929Z,13.70
2018-05-23T02:52:59.732Z,13.70
2018-05-23T02:55:26.495Z,13.70
2018-05-23T02:57:52.538Z,13.60
2018-05-23T03:00:18.599Z,13.60
2018-05-23T03:02:44.647Z,13.60
2018-05-23T03:05:10.697Z,13.60
2018-05-23T03:07:36.765Z,13.60
2018-05-23T03:10:02.808Z,13.60
2018-05-23T03:12:28.836Z,13.60
2018-05-23T03:14:54.888Z,13.60
2018-05-23T03:17:20.911Z,13.50
2018-05-23T03:19:46.953Z,13.50
2018-05-23T03:22:12.972Z,13.50
2018-05-23T03:24:39.047Z,13.50
2018-05-23T03:27:05.915Z,13.40
2018-05-23T03:29:31.993Z,13.40
2018-05-23T03:31:58.081Z,13.40
2018-05-23T03:34:24.123Z,13.50
2018-05-23T03:36:50.223Z,13.50
2018-05-23T03:39:16.246Z,13.50
2018-05-23T03:41:42.577Z,13.50
2018-05-23T03:44:08.740Z,13.50
2018-05-23T03:46:34.792Z,13.50
2018-05-23T03:49:00.865Z,13.60
2018-05-23T03:51:27.011Z,13.60
2018-05-23T03:53:53.825Z,13.70
2018-05-23T03:56:19.906Z,13.70
2018-05-23T03:58:46.692Z,13.80
2018-05-23T04:01:25.091Z,13.80
2018-05-23T04:07:25.622Z,14.00
2018-05-23T04:09:51.666Z,14.00
2018-05-23T04:12:17.713Z,14.10
2018-05-23T04:14:43.818Z,14.20
2018-05-23T04:17:09.858Z,14.20
2018-05-23T04:19:37.386Z,14.20
2018-05-23T04:22:04.168Z,14.40
2018-05-23T04:24:30.322Z,14.40
2018-05-23T04:26:56.389Z,14.40
2018-05-23T04:29:22.429Z,14.40
2018-05-23T04:31:49.223Z,14.50
2018-05-23T04:34:16.192Z,14.50
2018-05-23T04:36:42.259Z,14.50
2018-05-23T04:39:08.325Z,14.50
2018-05-23T04:41:34.396Z,14.60
2018-05-23T04:44:00.534Z,14.60
2018-05-23T04:46:27.317Z,14.60
2018-05-23T04:48:53.390Z,14.60
2018-05-23T04:51:19.407Z,14.70
2018-05-23T04:53:45.418Z,14.70
2018-05-23T04:56:11.688Z,14.80
2018-05-23T04:58:37.856Z,14.80
2018-05-23T05:01:04.219Z,14.90
2018-05-23T05:03:31.004Z,15.00
2018-05-23T05:05:57.050Z,14.90
2018-05-23T05:08:23.159Z,15.00
2018-05-23T05:10:49.918Z,15.10
2018-05-23T05:13:15.979Z,15.10
2018-05-23T05:15:42.014Z,15.20
2018-05-23T05:18:08.799Z,15.30
2018-05-23T05:20:35.083Z,15.30
2018-05-23T05:23:01.116Z,15.30
2018-05-23T05:25:27.909Z,15.50
2018-05-23T05:27:54.102Z,15.50
2018-05-23T05:30:20.128Z,15.60
2018-05-23T05:32:46.289Z,15.70
2018-05-23T05:35:13.393Z,15.90
2018-05-23T05:37:39.490Z,15.90
2018-05-23T05:40:05.660Z,16.00
2018-05-23T05:42:31.638Z,16.00
2018-05-23T05:44:57.677Z,16.10
2018-05-23T05:47:23.698Z,16.20
2018-05-23T05:49:49.737Z,16.40
2018-05-23T05:52:15.761Z,16.40
2018-05-23T05:54:41.780Z,16.60
2018-05-23T05:57:07.866Z,16.70
2018-05-23T05:59:34.693Z,16.90
2018-05-23T06:02:01.613Z,16.90
2018-05-23T06:04:28.418Z,17.00
2018-05-23T06:06:54.457Z,17.00
2018-05-23T06:09:20.582Z,17.10
2018-05-23T06:11:46.770Z,17.20
2018-05-23T06:14:13.589Z,17.30
2018-05-23T06:16:39.674Z,17.30
2018-05-23T06:19:05.755Z,17.40
2018-05-23T06:21:31.841Z,17.50
2018-05-23T06:23:58.087Z,17.60
2018-05-23T06:26:24.138Z,17.70
2018-05-23T06:28:50.196Z,17.80
2018-05-23T06:31:16.260Z,17.90
2018-05-23T06:33:42.309Z,17.90
2018-05-23T06:36:09.137Z,18.10
2018-05-23T06:38:35.204Z,18.10
2018-05-23T06:41:02.013Z,18.40
2018-05-23T06:43:28.119Z,18.30
2018-05-23T06:45:54.918Z,18.60
2018-05-23T06:48:21.805Z,18.70
2018-05-23T06:50:47.884Z,18.70
2018-05-23T06:53:14.114Z,18.80
2018-05-23T06:55:41.263Z,19.10
2018-05-23T06:58:08.107Z,19.10
2018-05-23T07:00:34.197Z,19.10
2018-05-23T07:03:00.274Z,19.20
2018-05-23T07:05:26.456Z,19.20
2018-05-23T07:07:52.510Z,19.30
2018-05-23T07:10:18.938Z,19.40
2018-05-23T07:12:44.955Z,19.50
2018-05-23T07:15:11.742Z,19.70
2018-05-23T07:17:37.825Z,19.60
2018-05-23T07:20:03.857Z,19.70
2018-05-23T07:22:29.924Z,19.80
2018-05-23T07:24:56.816Z,20.00
2018-05-23T07:27:22.850Z,20.00
2018-05-23T07:29:48.918Z,20.10
2018-05-23T07:32:15.002Z,20.20
2018-05-23T07:34:41.081Z,20.20
2018-05-23T07:37:07.099Z,20.30
2018-05-23T07:39:33.362Z,20.40
2018-05-23T07:41:59.446Z,20.40
2018-05-23T07:44:25.478Z,20.50
2018-05-23T07:46:51.522Z,20.60
2018-05-23T07:49:17.576Z,20.60
2018-05-23T07:51:43.589Z,20.70
2018-05-23T07:54:10.386Z,20.80
2018-05-23T07:56:36.490Z,20.70
2018-05-23T07:59:02.609Z,20.80
2018-05-23T08:01:28.685Z,21.00
2018-05-23T08:03:54.962Z,21.10
2018-05-23T08:06:21.038Z,21.10
2018-05-23T08:08:47.058Z,21.10
2018-05-23T08:11:13.175Z,21.10
2018-05-23T08:13:39.305Z,21.20
2018-05-23T08:16:05.393Z,21.20
2018-05-23T08:18:31.418Z,21.30
2018-05-23T08:20:58.281Z,21.30
2018-05-23T08:23:24.318Z,21.30
2018-05-23T08:25:51.127Z,21.40
2018-05-23T08:28:17.280Z,21.40
2018-05-23T08:30:43.318Z,21.40
2018-05-23T08:33:09.367Z,21.40
2018-05-23T08:35:35.865Z,21.50
2018-05-23T08:38:01.922Z,21.50
2018-05-23T08:40:28.015Z,21.60
2018-05-23T08:42:54.076Z,21.60
2018-05-23T08:45:20.179Z,21.60
2018-05-23T08:47:46.219Z,21.70
2018-05-23T08:50:13.023Z,21.70
2018-05-23T08:52:39.068Z,21.70
2018-05-23T08:55:05.142Z,21.80
2018-05-23T08:57:31.932Z,21.90
2018-05-23T08:59:58.361Z,21.90
2018-05-23T09:02:24.406Z,22.00
2018-05-23T09:04:50.529Z,21.90
2018-05-23T09:07:16.515Z,22.00
2018-05-23T09:09:42.590Z,22.00
2018-05-23T09:12:09.470Z,22.10
2018-05-23T09:14:35.479Z,22.00
2018-05-23T09:17:02.294Z,22.10
2018-05-23T09:19:28.783Z,22.10
2018-05-23T09:21:54.863Z,22.10
2018-05-23T09:24:20.894Z,22.20
2018-05-23T09:26:46.936Z,22.30
2018-05-23T09:29:13.026Z,22.50
2018-05-23T09:31:39.805Z,22.60
2018-05-23T09:34:06.605Z,22.70
2018-05-23T09:36:32.654Z,22.60
2018-05-23T09:38:58.665Z,22.70
2018-05-23T09:41:25.362Z,22.70
2018-05-23T09:43:51.501Z,22.90
2018-05-23T09:46:17.637Z,22.90
2018-05-23T09:48:44.469Z,23.10
2018-05-23T09:51:10.478Z,23.10
2018-05-23T09:53:36.551Z,23.10
2018-05-23T09:56:02.604Z,23.20
2018-05-23T09:58:29.410Z,23.40
2018-05-23T10:00:55.509Z,23.40
2018-05-23T10:03:21.549Z,23.40
2018-05-23T10:05:47.637Z,23.50
2018-05-23T10:08:13.763Z,23.60
2018-05-23T10:10:39.891Z,23.60
2018-05-23T10:13:05.983Z,23.70
2018-05-23T10:15:33.935Z,23.60
2018-05-23T10:18:00.032Z,23.60
2018-05-23T10:20:26.101Z,23.80
2018-05-23T10:22:52.134Z,24.00
2018-05-23T10:25:18.278Z,24.10
2018-05-23T10:27:44.396Z,24.10
2018-05-23T10:30:10.478Z,24.20
2018-05-23T10:32:36.519Z,24.30
2018-05-23T10:35:02.849Z,24.50
2018-05-23T10:37:28.870Z,24.50
2018-05-23T10:39:54.893Z,24.60
2018-05-23T10:42:20.976Z,24.80
2018-05-23T10:44:47.098Z,24.90
2018-05-23T10:47:13.150Z,25.00
2018-05-23T10:49:39.188Z,25.10
2018-05-23T10:52:05.378Z,25.10
2018-05-23T10:54:32.571Z,25.30
2018-05-23T10:56:58.677Z,25.30
2018-05-23T10:59:24.829Z,25.30
2018-05-23T11:01:50.889Z,25.40
2018-05-23T11:04:16.929Z,25.40
2018-05-23T11:06:43.025Z,25.50
2018-05-23T11:09:09.071Z,25.70
2018-05-23T11:11:35.440Z,26.00
2018-05-23T11:14:01.498Z,26.30
2018-05-23T11:16:27.591Z,26.70
2018-05-23T11:18:53.621Z,27.30
2018-05-23T11:21:20.358Z,27.80
2018-05-23T11:23:46.393Z,28.30
2018-05-23T11:26:12.512Z,28.90
2018-05-23T11:28:38.546Z,29.10
2018-05-23T11:31:04.684Z,29.20
2018-05-23T11:33:31.486Z,29.80
2018-05-23T11:35:57.586Z,29.70
2018-05-23T11:38:24.458Z,30.20
2018-05-23T11:40:50.483Z,30.60
2018-05-23T11:43:17.581Z,31.40
2018-05-23T11:45:43.658Z,31.40
2018-05-23T11:48:09.739Z,31.90
2018-05-23T11:50:35.822Z,32.00
2018-05-23T11:53:02.182Z,32.50
2018-05-23T11:55:28.329Z,32.50
2018-05-23T11:57:55.267Z,33.20
2018-05-23T12:00:21.363Z,33.10
2018-05-23T12:02:47.414Z,33.50
2018-05-23T12:05:13.498Z,33.70
2018-05-23T12:07:39.608Z,33.60
2018-05-23T12:10:05.694Z,34.70
2018-05-23T12:12:31.765Z,34.90
2018-05-23T12:14:57.783Z,34.70
2018-05-23T12:17:23.805Z,35.00
2018-05-23T12:19:50.625Z,36.00
2018-05-23T12:22:16.680Z,35.90
2018-05-23T12:24:42.741Z,36.20
2018-05-23T12:27:08.821Z,35.80
2018-05-23T12:29:34.904Z,35.40
2018-05-23T12:32:02.313Z,36.30
2018-05-23T12:34:29.206Z,36.30
2018-05-23T12:36:55.661Z,36.30
2018-05-23T12:39:21.709Z,36.40
2018-05-23T12:41:48.551Z,36.80
2018-05-23T12:44:14.580Z,36.70
2018-05-23T12:46:40.669Z,36.70
2018-05-23T12:49:06.698Z,37.20
2018-05-23T12:51:33.121Z,37.40
2018-05-23T12:53:59.993Z,37.50
2018-05-23T12:56:26.807Z,38.20
2018-05-23T12:58:52.862Z,38.20
2018-05-23T13:01:19.673Z,39.60
2018-05-23T13:03:45.714Z,39.60
2018-05-23T13:06:11.760Z,39.20
2018-05-23T13:08:38.281Z,39.10
2018-05-23T13:11:04.351Z,39.70
2018-05-23T13:13:30.401Z,40.40
2018-05-23T13:15:56.519Z,40.50
2018-05-23T13:18:22.554Z,40.10
2018-05-23T13:20:48.621Z,40.40
2018-05-23T13:23:15.347Z,40.10
2018-05-23T13:25:41.397Z,40.80
2018-05-23T13:28:07.462Z,41.40
2018-05-23T13:30:34.253Z,41.60
2018-05-23T13:33:00.364Z,41.60
2018-05-23T13:35:27.142Z,42.50
2018-05-23T13:37:53.194Z,42.50
2018-05-23T13:40:19.291Z,42.40
2018-05-23T13:42:45.338Z,42.30
2018-05-23T13:45:13.074Z,40.80
2018-05-23T13:47:39.243Z,40.80
2018-05-23T13:50:06.117Z,37.80
2018-05-23T13:52:32.209Z,37.70
2018-05-23T13:54:58.294Z,38.00
2018-05-23T13:57:24.354Z,39.00
2018-05-23T13:59:50.495Z,39.70
2018-05-23T14:02:16.600Z,39.30
2018-05-23T14:04:43.384Z,39.40
2018-05-23T14:07:09.470Z,39.40
2018-05-23T14:09:35.574Z,38.60
2018-05-23T14:12:01.666Z,37.00
2018-05-23T14:14:27.742Z,35.90
2018-05-23T14:16:53.838Z,36.00
2018-05-23T14:19:20.679Z,37.90
2018-05-23T14:21:46.789Z,37.80
2018-05-23T14:24:12.915Z,38.50
2018-05-23T14:26:39.086Z,38.40
2018-05-23T14:29:05.186Z,38.00
2018-05-23T14:31:31.288Z,36.80
2018-05-23T14:33:57.410Z,35.80
2018-05-23T14:36:23.518Z,35.70
2018-05-23T14:38:50.392Z,36.20
2018-05-23T14:41:16.688Z,37.50
2018-05-23T14:43:42.892Z,38.30
2018-05-23T14:46:08.988Z,39.50
2018-05-23T14:48:35.091Z,40.10
2018-05-23T14:51:01.546Z,39.60
2018-05-23T14:53:27.606Z,39.60
2018-05-23T14:55:53.732Z,38.50
2018-05-23T14:58:20.489Z,39.00
2018-05-23T15:00:46.550Z,39.00
2018-05-23T15:03:12.678Z,38.90
2018-05-23T15:05:38.767Z,40.10
2018-05-23T15:08:05.639Z,41.50
2018-05-23T15:10:31.761Z,41.40
2018-05-23T15:12:57.818Z,41.30
2018-05-23T15:15:23.871Z,41.10
2018-05-23T15:17:50.764Z,41.70
2018-05-23T15:20:16.854Z,42.20
2018-05-23T15:22:42.925Z,42.60
2018-05-23T15:25:09.088Z,42.60
2018-05-23T15:27:36.113Z,42.90
2018-05-23T15:30:02.335Z,42.70
2018-05-23T15:32:28.429Z,42.20
2018-05-23T15:34:55.581Z,42.00
2018-05-23T15:37:21.633Z,41.80
2018-05-23T15:39:47.712Z,41.70
2018-05-23T15:42:14.031Z,41.50
2018-05-23T15:44:40.115Z,41.30
2018-05-23T15:47:06.241Z,41.80
2018-05-23T15:49:32.438Z,42.40
2018-05-23T15:51:59.384Z,42.70
2018-05-23T15:54:25.490Z,42.60
2018-05-23T15:56:51.555Z,42.20
2018-05-23T15:59:17.666Z,41.80
2018-05-23T16:01:43.731Z,41.90
2018-05-23T16:04:10.140Z,41.70
2018-05-23T16:06:36.200Z,41.70
2018-05-23T16:09:02.272Z,42.50
2018-05-23T16:11:29.102Z,41.60
2018-05-23T16:13:56.625Z,42.10
2018-05-23T16:16:22.743Z,42.10
2018-05-23T16:18:48.806Z,42.40
2018-05-23T16:21:14.845Z,42.40
2018-05-23T16:23:48.023Z,42.00
2018-05-23T16:26:14.819Z,41.80
2018-05-23T16:28:40.888Z,41.80
2018-05-23T16:31:07.014Z,42.00
2018-05-23T16:33:33.086Z,41.70
2018-05-23T16:35:59.882Z,40.80
2018-05-23T16:38:25.972Z,40.80
2018-05-23T16:40:52.029Z,40.60
2018-05-23T16:43:18.406Z,40.60
2018-05-23T16:45:44.546Z,40.60
2018-05-23T16:48:10.593Z,40.90
2018-05-23T16:50:36.677Z,39.90
2018-05-23T16:53:03.025Z,39.90
2018-05-23T16:55:29.834Z,39.90
2018-05-23T16:57:55.895Z,39.80
2018-05-23T17:00:22.039Z,40.50
2018-05-23T17:02:48.081Z,40.50
2018-05-23T17:05:14.117Z,40.30
2018-05-23T17:07:40.172Z,39.40
2018-05-23T17:10:06.638Z,39.50
2018-05-23T17:12:32.778Z,39.50
2018-05-23T17:14:58.798Z,39.10
2018-05-23T17:17:25.638Z,38.80
2018-05-23T17:19:52.438Z,37.00
2018-05-23T17:22:18.456Z,36.90
2018-05-23T17:24:44.517Z,35.20
2018-05-23T17:27:10.593Z,33.70
2018-05-23T17:29:36.668Z,32.20
2018-05-23T17:32:02.780Z,30.80
2018-05-23T17:34:29.582Z,28.90
2018-05-23T17:36:55.658Z,28.90
2018-05-23T17:39:21.844Z,28.20
2018-05-23T17:41:47.927Z,27.60
2018-05-23T17:44:14.173Z,27.10
2018-05-23T17:46:40.213Z,26.90
2018-05-23T17:49:06.334Z,26.50
2018-05-23T17:51:32.409Z,26.20
2018-05-23T17:53:59.258Z,25.40
2018-05-23T17:56:25.349Z,25.40
2018-05-23T17:58:51.403Z,25.10
2018-05-23T18:01:17.474Z,24.90
2018-05-23T18:03:44.390Z,24.50
2018-05-23T18:06:10.493Z,24.40
2018-05-23T18:08:37.255Z,24.00
2018-05-23T18:11:03.310Z,24.00
2018-05-23T18:13:29.408Z,23.80
2018-05-23T18:15:56.281Z,23.50
2018-05-23T18:18:22.334Z,23.50
2018-05-23T18:20:48.454Z,23.40
2018-05-23T18:23:14.691Z,23.30
2018-05-23T18:25:41.464Z,23.00
2018-05-23T18:28:07.517Z,22.90
2018-05-23T18:30:33.716Z,22.90
2018-05-23T18:33:00.619Z,22.70
2018-05-23T18:35:26.786Z,22.60
2018-05-23T18:37:52.851Z,22.60
2018-05-23T18:40:19.616Z,22.40
2018-05-23T18:42:45.706Z,22.30
2018-05-23T18:45:11.772Z,22.20
2018-05-23T18:47:38.570Z,22.00
2018-05-23T18:50:04.866Z,22.00
2018-05-23T18:52:31.621Z,21.90
2018-05-23T18:54:58.407Z,21.60
2018-05-23T18:57:24.505Z,21.60
2018-05-23T18:59:51.405Z,21.40
2018-05-23T19:02:17.658Z,21.40
2018-05-23T19:04:43.729Z,21.40
2018-05-23T19:07:09.807Z,21.30
2018-05-23T19:09:35.889Z,21.20
2018-05-23T19:12:01.935Z,21.00
2018-05-23T19:14:28.016Z,20.90
2018-05-23T19:16:54.101Z,20.80
2018-05-23T19:19:20.184Z,20.70
2018-05-23T19:21:46.966Z,20.40
2018-05-23T19:24:13.045Z,20.40
2018-05-23T19:26:39.098Z,20.30
2018-05-23T19:29:05.177Z,20.20
2018-05-23T19:31:31.262Z,20.10
2018-05-23T19:33:57.323Z,20.00
2018-05-23T19:36:24.212Z,19.80
2018-05-23T19:38:50.296Z,19.70
2018-05-23T19:41:16.384Z,19.70
2018-05-23T19:43:43.159Z,19.50
2018-05-23T19:46:09.264Z,19.50
2018-05-23T19:48:36.147Z,19.30
2018-05-23T19:51:02.224Z,19.30
2018-05-23T19:53:28.276Z,19.20
2018-05-23T19:55:55.069Z,19.10
2018-05-23T19:58:21.162Z,19.10
2018-05-23T20:00:47.601Z,18.90
2018-05-23T20:03:13.770Z,18.90
2018-05-23T20:05:39.967Z,18.80
2018-05-23T20:08:07.050Z,18.70
2018-05-23T20:10:33.092Z,18.60
2018-05-23T20:12:59.897Z,18.50
2018-05-23T20:15:27.192Z,18.50
2018-05-23T20:17:53.278Z,18.40
2018-05-23T20:20:19.341Z,18.40
2018-05-23T20:22:45.423Z,18.40
2018-05-23T20:25:11.559Z,18.30
2018-05-23T20:27:38.431Z,18.10
2018-05-23T20:30:05.275Z,18.00
2018-05-23T20:32:32.634Z,18.00
2018-05-23T20:34:58.772Z,18.00
2018-05-23T20:37:24.868Z,17.90
2018-05-23T20:39:50.996Z,17.90
2018-05-23T20:42:17.031Z,17.80
2018-05-23T20:44:43.081Z,17.80
2018-05-23T20:47:09.167Z,17.70
2018-05-23T20:49:35.331Z,17.70
2018-05-23T20:52:01.411Z,17.60
2018-05-23T20:54:27.443Z,17.50
2018-05-23T20:56:53.522Z,17.50
2018-05-23T20:59:20.308Z,17.40
2018-05-23T21:01:46.435Z,17.30
2018-05-23T21:04:13.226Z,17.30
2018-05-23T21:06:39.299Z,17.20
2018-05-23T21:09:05.393Z,17.20
2018-05-23T21:11:31.444Z,17.20
2018-05-23T21:13:57.469Z,17.10
2018-05-23T21:16:23.589Z,17.10
2018-05-23T21:18:49.728Z,17.10
2018-05-23T21:21:16.390Z,17.00
2018-05-23T21:23:42.493Z,17.00
2018-05-23T21:26:09.336Z,16.90
2018-05-23T21:28:35.423Z,16.90
2018-05-23T21:31:01.933Z,16.80
2018-05-23T21:33:28.709Z,16.80
2018-05-23T21:35:54.742Z,16.80
2018-05-23T21:38:20.799Z,16.80
2018-05-23T21:40:46.884Z,16.70
2018-05-23T21:43:13.667Z,16.70
2018-05-23T21:45:40.544Z,16.60
2018-05-23T21:48:06.799Z,16.60
2018-05-23T21:50:32.878Z,16.60
2018-05-23T21:52:58.922Z,16.60
2018-05-23T21:55:24.981Z,16.50
2018-05-23T21:57:51.096Z,16.50
2018-05-23T22:00:17.173Z,16.50
2018-05-23T22:02:43.224Z,16.40
2018-05-23T22:05:09.308Z,16.40
2018-05-23T22:07:35.700Z,16.30
2018-05-23T22:10:01.734Z,16.30
2018-05-23T22:12:27.791Z,16.30
2018-05-23T22:14:53.841Z,16.20
2018-05-23T22:17:19.845Z,16.20
2018-05-23T22:19:45.890Z,16.20
2018-05-23T22:22:11.945Z,16.10
2018-05-23T22:24:38.120Z,16.10
2018-05-23T22:27:04.879Z,16.10
2018-05-23T22:29:30.909Z,16.00
2018-05-23T22:31:56.928Z,16.00
2018-05-23T22:34:22.982Z,16.00
2018-05-23T22:36:49.057Z,16.00
2018-05-23T22:39:15.117Z,16.00
2018-05-23T22:41:41.747Z,16.00
2018-05-23T22:44:07.795Z,15.90
2018-05-23T22:46:33.834Z,15.90
2018-05-23T22:48:59.869Z,15.90
2018-05-23T22:51:25.930Z,15.80
2018-05-23T22:53:52.141Z,15.80
2018-05-23T22:56:18.175Z,15.70
2018-05-23T22:58:44.282Z,15.70
2018-05-23T23:01:11.098Z,15.60
2018-05-23T23:03:37.156Z,15.60
2018-05-23T23:06:03.309Z,15.60
2018-05-23T23:08:30.128Z,15.50
2018-05-23T23:10:56.224Z,15.50
2018-05-23T23:13:22.294Z,15.50
2018-05-23T23:15:48.338Z,15.50
2018-05-23T23:18:14.401Z,15.40
2018-05-23T23:20:40.464Z,15.40
2018-05-23T23:23:06.581Z,15.40
2018-05-23T23:25:32.625Z,15.30
2018-05-23T23:27:59.448Z,15.20
2018-05-23T23:30:25.480Z,15.20
2018-05-23T23:32:51.707Z,15.20
2018-05-23T23:35:17.753Z,15.20
2018-05-23T23:37:43.807Z,15.10
2018-05-23T23:40:09.862Z,15.00
2018-05-23T23:42:36.032Z,15.00
2018-05-23T23:45:02.075Z,15.00
2018-05-23T23:47:28.138Z,14.90
2018-05-23T23:49:54.180Z,14.90
2018-05-23T23:52:20.225Z,14.80
2018-05-23T23:54:46.631Z,14.80
2018-05-23T23:57:12.654Z,14.70
2018-05-23T23:59:38.743Z,14.70
